createdAt,value
2023-02-28T00:00:11.122Z,7.05
2023-02-28T00:02:39.802Z,4.10
2023-02-28T00:05:09.330Z,4.10
2023-02-28T00:07:37.721Z,4.18
2023-02-28T00:10:09.372Z,3.60
2023-02-28T00:12:39.328Z,3.80
2023-02-28T00:15:09.332Z,4.03
2023-02-28T00:17:37.302Z,4.40
2023-02-28T00:20:09.253Z,3.92
2023-02-28T00:22:37.980Z,3.95
2023-02-28T00:25:07.872Z,4.07
2023-02-28T00:27:36.637Z,3.78
2023-02-28T00:30:11.976Z,4.20
2023-02-28T00:32:40.048Z,4.47
2023-02-28T00:35:09.670Z,4.68
2023-02-28T00:37:37.870Z,4.68
2023-02-28T00:40:08.743Z,4.78
2023-02-28T00:42:37.538Z,5.68
2023-02-28T00:45:09.033Z,5.25
2023-02-28T00:47:39.861Z,4.88
2023-02-28T00:50:09.537Z,5.68
2023-02-28T00:52:38.453Z,5.20
2023-02-28T00:55:07.013Z,5.38
2023-02-28T00:57:35.011Z,5.22
2023-02-28T01:00:04.608Z,5.20
2023-02-28T01:02:34.003Z,4.97
2023-02-28T01:05:02.172Z,5.32
2023-02-28T01:07:31.810Z,5.40
2023-02-28T01:09:59.828Z,5.63
2023-02-28T01:12:29.919Z,5.45
2023-02-28T01:14:59.013Z,5.70
2023-02-28T01:17:27.372Z,5.70
2023-02-28T01:19:57.314Z,5.38
2023-02-28T01:22:26.925Z,5.35
2023-02-28T01:24:55.106Z,5.28
2023-02-28T01:27:23.050Z,6.18
2023-02-28T01:29:52.544Z,6.45
2023-02-28T01:32:20.575Z,6.03
2023-02-28T01:34:48.620Z,5.45
2023-02-28T01:37:17.957Z,5.70
2023-02-28T01:39:45.927Z,5.95
2023-02-28T01:42:14.604Z,4.88
2023-02-28T01:45:06.325Z,5.70
2023-02-28T01:47:37.361Z,5.53
2023-02-28T01:50:11.728Z,5.20
2023-02-28T01:52:42.424Z,4.72
2023-02-28T01:55:12.875Z,5.68
2023-02-28T01:57:47.598Z,6.63
2023-02-28T02:00:19.098Z,6.40
2023-02-28T02:02:53.046Z,5.53
2023-02-28T02:05:23.383Z,5.10
2023-02-28T02:07:56.707Z,4.68
2023-02-28T02:10:32.433Z,5.20
2023-02-28T02:13:18.711Z,5.05
2023-02-28T02:18:28.142Z,5.70
2023-02-28T02:21:31.946Z,5.80
2023-02-28T02:24:36.232Z,5.20
2023-02-28T02:27:22.389Z,4.45
2023-02-28T02:30:18.184Z,5.07
2023-02-28T02:33:15.625Z,5.07
2023-02-28T02:38:27.071Z,5.10
2023-02-28T02:41:01.243Z,7.15
2023-02-28T02:43:34.881Z,9.88
2023-02-28T02:46:10.023Z,6.78
2023-02-28T02:48:40.592Z,4.90
2023-02-28T02:51:16.186Z,4.78
2023-02-28T02:53:50.200Z,5.30
2023-02-28T02:56:22.300Z,5.03
2023-02-28T02:58:53.035Z,5.25
2023-02-28T03:01:29.725Z,5.15
2023-02-28T03:04:01.871Z,5.18
2023-02-28T03:06:31.336Z,4.72
2023-02-28T03:08:59.362Z,5.00
2023-02-28T03:11:27.791Z,5.03
2023-02-28T03:14:18.529Z,5.55
2023-02-28T03:17:04.636Z,4.97
2023-02-28T03:19:46.287Z,4.85
2023-02-28T03:22:35.181Z,4.90
2023-02-28T03:25:10.530Z,4.70
2023-02-28T03:27:44.276Z,4.43
2023-02-28T03:30:19.422Z,4.60
2023-02-28T03:32:56.562Z,4.72
2023-02-28T03:35:26.860Z,4.90
2023-02-28T03:38:03.831Z,4.75
2023-02-28T03:40:35.155Z,4.18
2023-02-28T03:43:09.713Z,4.93
2023-02-28T03:45:41.000Z,4.83
2023-02-28T03:48:14.403Z,5.05
2023-02-28T03:50:44.697Z,4.95
2023-02-28T03:53:16.914Z,4.82
2023-02-28T03:55:47.279Z,5.15
2023-02-28T03:58:22.462Z,5.05
2023-02-28T04:00:57.291Z,5.63
2023-02-28T04:03:25.371Z,5.53
2023-02-28T04:05:55.689Z,4.95
2023-02-28T04:08:25.148Z,5.20
2023-02-28T04:10:59.755Z,5.10
2023-02-28T04:13:27.782Z,4.88
2023-02-28T04:15:55.872Z,5.65
2023-02-28T04:18:23.865Z,5.05
2023-02-28T04:20:51.919Z,4.78
2023-02-28T04:23:19.842Z,4.68
2023-02-28T04:25:49.135Z,4.80
2023-02-28T04:28:17.187Z,4.57
2023-02-28T04:30:45.172Z,5.28
2023-02-28T04:33:13.214Z,5.13
2023-02-28T04:35:41.231Z,4.95
2023-02-28T04:38:09.173Z,4.47
2023-02-28T04:40:38.061Z,4.88
2023-02-28T04:43:07.422Z,5.30
2023-02-28T04:45:35.477Z,4.93
2023-02-28T04:48:03.470Z,4.88
2023-02-28T04:50:31.445Z,4.97
2023-02-28T04:52:59.741Z,4.82
2023-02-28T04:55:27.735Z,5.47
2023-02-28T04:57:55.788Z,5.30
2023-02-28T05:00:26.054Z,5.32
2023-02-28T05:02:54.061Z,4.80
2023-02-28T05:05:22.353Z,5.40
2023-02-28T05:07:50.364Z,5.20
2023-02-28T05:10:18.831Z,5.45
2023-02-28T05:12:46.861Z,5.53
2023-02-28T05:15:15.558Z,5.68
2023-02-28T05:17:45.354Z,5.88
2023-02-28T05:20:15.690Z,5.40
2023-02-28T05:22:45.460Z,5.35
2023-02-28T05:25:17.375Z,4.57
2023-02-28T05:27:45.354Z,4.47
2023-02-28T05:30:13.898Z,5.95
2023-02-28T05:32:44.606Z,4.10
2023-02-28T05:35:13.499Z,4.45
2023-02-28T05:37:41.586Z,4.22
2023-02-28T05:40:11.370Z,4.60
2023-02-28T05:42:39.918Z,4.32
2023-02-28T05:45:09.213Z,4.88
2023-02-28T05:47:37.601Z,4.60
2023-02-28T05:50:10.256Z,4.35
2023-02-28T05:52:38.449Z,5.20
2023-02-28T05:55:07.362Z,5.00
2023-02-28T05:57:35.317Z,4.28
2023-02-28T06:00:04.303Z,4.50
2023-02-28T06:02:41.266Z,4.82
2023-02-28T06:05:16.037Z,4.45
2023-02-28T06:07:44.317Z,4.63
2023-02-28T06:10:15.677Z,4.65
2023-02-28T06:12:44.103Z,5.05
2023-02-28T06:15:15.006Z,4.45
2023-02-28T06:17:43.106Z,4.72
2023-02-28T06:20:17.710Z,4.68
2023-02-28T06:22:45.663Z,5.10
2023-02-28T06:25:13.695Z,4.75
2023-02-28T06:27:45.480Z,5.18
2023-02-28T06:30:15.365Z,4.15
2023-02-28T06:32:45.400Z,4.75
2023-02-28T06:35:14.746Z,4.50
2023-02-28T06:37:42.891Z,5.28
2023-02-28T06:40:12.226Z,4.85
2023-02-28T06:42:40.189Z,4.75
2023-02-28T06:45:10.381Z,4.93
2023-02-28T06:47:39.300Z,5.50
2023-02-28T06:50:08.659Z,5.07
2023-02-28T06:52:38.252Z,5.30
2023-02-28T06:55:07.666Z,5.95
2023-02-28T06:57:37.877Z,6.00
2023-02-28T07:00:09.220Z,6.70
2023-02-28T07:02:38.425Z,6.50
2023-02-28T07:05:07.090Z,7.25
2023-02-28T07:07:37.269Z,6.85
2023-02-28T07:10:07.347Z,7.47
2023-02-28T07:12:35.380Z,7.28
2023-02-28T07:15:04.129Z,6.97
2023-02-28T07:17:32.130Z,6.00
2023-02-28T07:20:00.107Z,5.70
2023-02-28T07:22:29.548Z,6.25
2023-02-28T07:24:57.529Z,5.85
2023-02-28T07:27:26.890Z,7.43
2023-02-28T07:29:55.793Z,5.38
2023-02-28T07:32:24.617Z,6.63
2023-02-28T07:34:52.682Z,5.72
2023-02-28T07:37:20.807Z,7.10
2023-02-28T07:39:48.866Z,6.55
2023-02-28T07:42:16.825Z,5.97
2023-02-28T07:44:47.150Z,6.10
2023-02-28T07:47:15.126Z,4.75
2023-02-28T07:49:43.121Z,4.18
2023-02-28T07:52:12.335Z,3.90
2023-02-28T07:54:40.424Z,4.55
2023-02-28T07:57:08.506Z,4.50
2023-02-28T07:59:36.591Z,5.22
2023-02-28T08:02:06.461Z,4.30
2023-02-28T08:04:34.904Z,4.78
2023-02-28T08:07:02.986Z,4.47
2023-02-28T08:09:31.362Z,3.95
2023-02-28T08:11:59.400Z,4.22
2023-02-28T08:14:27.675Z,3.70
2023-02-28T08:16:55.664Z,4.20
2023-02-28T08:19:24.999Z,4.38
2023-02-28T08:21:53.018Z,3.85
2023-02-28T08:24:21.049Z,3.60
2023-02-28T08:26:49.143Z,3.60
2023-02-28T08:29:17.100Z,3.33
2023-02-28T08:31:45.268Z,3.42
2023-02-28T08:34:17.981Z,3.50
2023-02-28T08:36:47.604Z,3.50
2023-02-28T08:39:15.597Z,2.85
2023-02-28T08:41:45.014Z,3.22
2023-02-28T08:44:13.025Z,3.00
2023-02-28T08:46:41.284Z,2.90
2023-02-28T08:49:10.556Z,2.95
2023-02-28T08:51:38.552Z,2.95
2023-02-28T08:54:08.272Z,3.08
2023-02-28T08:56:37.225Z,3.50
2023-02-28T08:59:05.285Z,3.10
2023-02-28T09:01:33.627Z,2.92
2023-02-28T09:04:03.346Z,3.00
2023-02-28T09:06:31.643Z,2.38
2023-02-28T09:09:02.006Z,2.58
2023-02-28T09:11:31.423Z,2.60
2023-02-28T09:14:01.196Z,2.75
2023-02-28T09:16:29.236Z,2.53
2023-02-28T09:18:57.400Z,2.53
2023-02-28T09:21:25.782Z,3.05
2023-02-28T09:23:53.876Z,2.78
2023-02-28T09:26:24.223Z,2.53
2023-02-28T09:28:54.932Z,3.33
2023-02-28T09:31:24.698Z,2.50
2023-02-28T09:33:54.588Z,2.60
2023-02-28T09:36:28.924Z,2.63
2023-02-28T09:38:59.620Z,2.63
2023-02-28T09:41:31.885Z,2.85
2023-02-28T09:44:04.972Z,2.60
2023-02-28T09:46:36.716Z,3.00
2023-02-28T09:49:07.445Z,2.60
2023-02-28T09:51:44.841Z,2.65
2023-02-28T09:54:19.713Z,3.20
2023-02-28T09:56:53.462Z,2.70
2023-02-28T09:59:35.413Z,2.58
2023-02-28T10:02:14.952Z,2.78
2023-02-28T10:04:52.559Z,2.70
2023-02-28T10:07:31.615Z,2.08
2023-02-28T10:10:03.493Z,2.17
2023-02-28T10:12:32.906Z,1.90
2023-02-28T10:15:04.047Z,2.10
2023-02-28T10:17:49.301Z,2.20
2023-02-28T10:20:30.729Z,2.17
2023-02-28T10:23:08.328Z,2.08
2023-02-28T10:25:38.659Z,2.33
2023-02-28T10:28:12.918Z,2.42
2023-02-28T10:30:45.660Z,2.15
2023-02-28T10:33:24.196Z,2.58
2023-02-28T10:35:52.721Z,2.10
2023-02-28T10:38:23.101Z,2.00
2023-02-28T10:40:51.664Z,2.40
2023-02-28T10:43:25.577Z,2.20
2023-02-28T10:46:03.184Z,2.40
2023-02-28T10:48:39.846Z,2.22
2023-02-28T10:51:10.909Z,2.20
2023-02-28T10:54:00.681Z,2.40
2023-02-28T10:56:31.405Z,2.60
2023-02-28T10:59:02.016Z,2.20
2023-02-28T11:01:44.345Z,2.30
2023-02-28T11:04:36.796Z,2.42
2023-02-28T11:07:08.280Z,2.15
2023-02-28T11:09:39.499Z,3.60
2023-02-28T11:12:10.739Z,2.25
2023-02-28T11:14:49.859Z,2.13
2023-02-28T11:17:22.972Z,2.15
2023-02-28T11:19:55.704Z,2.40
2023-02-28T11:22:29.538Z,2.60
2023-02-28T11:24:59.964Z,2.17
2023-02-28T11:27:49.185Z,2.17
2023-02-28T11:30:33.125Z,2.15
2023-02-28T11:33:02.963Z,2.20
2023-02-28T11:35:35.677Z,2.63
2023-02-28T11:38:06.916Z,2.30
2023-02-28T11:40:45.041Z,2.65
2023-02-28T11:43:25.931Z,2.42
2023-02-28T11:46:06.917Z,2.80
2023-02-28T11:48:48.634Z,2.70
2023-02-28T11:51:23.024Z,2.42
2023-02-28T11:54:24.728Z,2.80
2023-02-28T11:56:56.917Z,3.38
2023-02-28T11:59:41.364Z,2.60
2023-02-28T12:02:25.174Z,3.00
2023-02-28T12:05:09.176Z,2.67
2023-02-28T12:07:49.838Z,2.60
2023-02-28T12:10:24.167Z,3.10
2023-02-28T12:13:05.791Z,2.83
2023-02-28T12:16:01.632Z,2.50
2023-02-28T12:18:51.391Z,2.40
2023-02-28T12:21:30.508Z,2.55
2023-02-28T12:24:09.424Z,2.47
2023-02-28T12:26:40.505Z,2.40
2023-02-28T12:29:16.666Z,2.92
2023-02-28T12:31:50.665Z,2.40
2023-02-28T12:34:23.362Z,2.80
2023-02-28T12:36:55.733Z,2.70
2023-02-28T12:39:32.680Z,2.72
2023-02-28T12:42:08.641Z,2.90
2023-02-28T12:44:42.804Z,3.13
2023-02-28T12:47:16.001Z,2.63
2023-02-28T12:49:48.675Z,2.80
2023-02-28T12:52:25.824Z,3.00
2023-02-28T12:54:58.520Z,3.30
2023-02-28T12:57:36.276Z,3.00
2023-02-28T13:00:06.994Z,2.83
2023-02-28T13:02:53.018Z,2.85
2023-02-28T13:08:38.332Z,3.20
2023-02-28T13:11:13.196Z,2.67
2023-02-28T13:13:48.070Z,2.80
2023-02-28T13:16:16.259Z,3.17
2023-02-28T13:18:47.544Z,2.90
2023-02-28T13:21:25.538Z,3.22
2023-02-28T13:24:07.088Z,3.17
2023-02-28T13:27:14.433Z,2.85
2023-02-28T13:29:45.304Z,2.90
2023-02-28T13:32:39.664Z,2.80
2023-02-28T13:35:32.652Z,2.92
2023-02-28T13:38:27.228Z,3.20
2023-02-28T13:40:56.785Z,3.28
2023-02-28T13:44:04.500Z,2.92
2023-02-28T13:46:33.542Z,3.00
2023-02-28T13:49:22.697Z,3.78
2023-02-28T13:51:52.058Z,2.65
2023-02-28T13:54:36.735Z,2.83
2023-02-28T13:57:22.785Z,2.70
2023-02-28T14:02:46.677Z,2.85
2023-02-28T14:05:17.960Z,3.17
2023-02-28T14:07:49.820Z,2.78
2023-02-28T14:10:31.170Z,2.90
2023-02-28T14:13:03.987Z,3.03
2023-02-28T14:15:51.616Z,3.22
2023-02-28T14:18:30.543Z,3.50
2023-02-28T14:21:12.328Z,3.20
2023-02-28T14:24:08.258Z,3.10
2023-02-28T14:26:55.701Z,3.13
2023-02-28T14:29:47.486Z,2.88
2023-02-28T14:32:27.415Z,3.05
2023-02-28T14:35:00.994Z,3.45
2023-02-28T14:37:31.721Z,3.80
2023-02-28T14:40:03.478Z,3.40
2023-02-28T14:42:34.031Z,2.78
2023-02-28T14:45:05.679Z,3.10
2023-02-28T14:47:35.534Z,3.25
2023-02-28T14:50:06.037Z,3.10
2023-02-28T14:52:35.060Z,3.30
2023-02-28T14:55:08.039Z,3.40
2023-02-28T14:57:41.025Z,2.75
2023-02-28T15:00:16.719Z,3.70
2023-02-28T15:02:45.490Z,2.92
2023-02-28T15:05:25.563Z,3.20
2023-02-28T15:08:04.520Z,3.05
2023-02-28T15:10:32.801Z,3.40
2023-02-28T15:13:03.231Z,3.40
2023-02-28T15:15:51.741Z,3.17
2023-02-28T15:18:33.897Z,3.38
2023-02-28T15:21:06.787Z,3.55
2023-02-28T15:23:37.075Z,3.10
2023-02-28T15:26:08.513Z,3.08
2023-02-28T15:28:36.766Z,3.25
2023-02-28T15:31:21.820Z,3.63
2023-02-28T15:33:56.501Z,3.30
2023-02-28T15:36:32.800Z,3.27
2023-02-28T15:39:10.826Z,3.10
2023-02-28T15:41:43.799Z,3.45
2023-02-28T15:44:20.241Z,3.05
2023-02-28T15:47:02.244Z,3.10
2023-02-28T15:49:33.481Z,3.22
2023-02-28T15:52:03.425Z,3.63
2023-02-28T15:54:36.846Z,3.47
2023-02-28T15:57:09.508Z,3.10
2023-02-28T15:59:38.651Z,3.70
2023-02-28T16:02:21.790Z,3.50
2023-02-28T16:05:28.750Z,3.63
2023-02-28T16:10:27.379Z,4.15
2023-02-28T16:12:57.011Z,4.25
2023-02-28T16:15:27.961Z,3.50
2023-02-28T16:17:58.563Z,3.72
2023-02-28T16:20:29.132Z,3.90
2023-02-28T16:22:57.603Z,3.58
2023-02-28T16:25:30.308Z,3.60
2023-02-28T16:28:01.325Z,4.25
2023-02-28T16:30:32.498Z,3.95
2023-02-28T16:33:02.250Z,3.92
2023-02-28T16:35:30.313Z,4.00
2023-02-28T16:37:58.304Z,3.97
2023-02-28T16:40:29.542Z,4.25
2023-02-28T16:43:01.104Z,4.45
2023-02-28T16:45:30.796Z,4.18
2023-02-28T16:47:58.970Z,4.15
2023-02-28T16:50:30.530Z,4.53
2023-02-28T16:52:58.584Z,4.07
2023-02-28T16:55:28.118Z,4.13
2023-02-28T16:57:57.758Z,5.45
2023-02-28T17:00:26.486Z,4.20
2023-02-28T17:02:54.697Z,4.60
2023-02-28T17:05:23.763Z,4.13
2023-02-28T17:07:53.486Z,4.63
2023-02-28T17:10:23.276Z,4.53
2023-02-28T17:12:52.825Z,4.07
2023-02-28T17:15:22.668Z,4.47
2023-02-28T17:17:51.433Z,4.40
2023-02-28T17:20:23.378Z,4.35
2023-02-28T17:22:53.149Z,3.97
2023-02-28T17:25:21.282Z,3.85
2023-02-28T17:27:49.789Z,4.68
2023-02-28T17:30:20.376Z,4.53
2023-02-28T17:32:48.461Z,4.95
2023-02-28T17:35:17.200Z,4.38
2023-02-28T17:37:45.212Z,4.50
2023-02-28T17:40:20.220Z,5.47
2023-02-28T17:42:48.402Z,4.50
2023-02-28T17:45:17.331Z,4.65
2023-02-28T17:47:48.360Z,4.70
2023-02-28T17:50:19.077Z,4.45
2023-02-28T17:52:47.220Z,4.93
2023-02-28T17:55:16.684Z,4.30
2023-02-28T17:57:44.694Z,4.75
2023-02-28T18:00:16.327Z,5.10
2023-02-28T18:02:44.712Z,4.53
2023-02-28T18:05:13.525Z,4.18
2023-02-28T18:07:41.896Z,4.90
2023-02-28T18:10:16.142Z,4.75
2023-02-28T18:12:45.488Z,4.38
2023-02-28T18:15:13.547Z,4.78
2023-02-28T18:17:41.613Z,5.28
2023-02-28T18:20:11.370Z,4.45
2023-02-28T18:22:40.079Z,5.10
2023-02-28T18:25:11.570Z,4.88
2023-02-28T18:27:40.478Z,4.82
2023-02-28T18:30:11.871Z,4.82
2023-02-28T18:32:39.880Z,5.30
2023-02-28T18:35:09.081Z,4.82
2023-02-28T18:37:38.296Z,5.18
2023-02-28T18:40:07.830Z,5.30
2023-02-28T18:42:35.789Z,5.10
2023-02-28T18:45:03.869Z,5.00
2023-02-28T18:47:33.230Z,5.25
2023-02-28T18:50:01.978Z,4.97
2023-02-28T18:52:30.086Z,5.07
2023-02-28T18:54:58.048Z,5.60
2023-02-28T18:57:26.138Z,5.05
2023-02-28T18:59:56.957Z,5.45
2023-02-28T19:02:24.953Z,7.10
2023-02-28T19:04:54.293Z,6.80
2023-02-28T19:07:22.338Z,7.85
2023-02-28T19:09:50.263Z,6.80
2023-02-28T19:12:20.589Z,6.25
2023-02-28T19:14:48.564Z,5.95
2023-02-28T19:17:16.772Z,6.53
2023-02-28T19:19:44.754Z,6.05
2023-02-28T19:22:14.092Z,6.50
2023-02-28T19:24:42.068Z,6.40
2023-02-28T19:27:10.046Z,6.50
2023-02-28T19:29:38.229Z,6.15
2023-02-28T19:32:06.458Z,6.53
2023-02-28T19:34:34.665Z,6.70
2023-02-28T19:37:02.627Z,5.93
2023-02-28T19:39:40.890Z,6.85
2023-02-28T19:42:09.217Z,7.22
2023-02-28T19:44:37.252Z,6.13
2023-02-28T19:47:05.209Z,6.90
2023-02-28T19:49:33.362Z,6.68
2023-02-28T19:52:01.970Z,6.78
2023-02-28T19:54:31.665Z,6.70
2023-02-28T19:56:59.860Z,7.20
2023-02-28T19:59:38.345Z,7.35
2023-02-28T20:02:08.348Z,7.03
2023-02-28T20:04:36.301Z,6.57
2023-02-28T20:07:04.306Z,7.15
2023-02-28T20:09:33.968Z,6.72
2023-02-28T20:12:05.187Z,6.72
2023-02-28T20:14:35.032Z,7.07
2023-02-28T20:17:03.038Z,6.97
2023-02-28T20:19:31.389Z,6.53
2023-02-28T20:22:00.961Z,7.78
2023-02-28T20:24:29.193Z,6.82
2023-02-28T20:26:58.564Z,7.55
2023-02-28T20:29:26.652Z,7.20
2023-02-28T20:31:55.101Z,6.90
2023-02-28T20:34:23.601Z,7.25
2023-02-28T20:36:52.035Z,7.07
2023-02-28T20:39:20.003Z,8.82
2023-02-28T20:41:48.096Z,8.55
2023-02-28T20:44:17.495Z,7.22
2023-02-28T20:46:45.548Z,6.53
2023-02-28T20:49:15.066Z,7.28
2023-02-28T20:51:43.103Z,7.35
2023-02-28T20:54:12.152Z,7.85
2023-02-28T20:56:40.301Z,8.00
2023-02-28T20:59:08.320Z,8.00
2023-02-28T21:01:37.758Z,8.90
2023-02-28T21:04:07.988Z,8.45
2023-02-28T21:06:37.796Z,8.40
2023-02-28T21:09:07.828Z,7.75
2023-02-28T21:11:40.226Z,7.00
2023-02-28T21:14:13.778Z,7.25
2023-02-28T21:16:46.929Z,6.68
2023-02-28T21:19:14.919Z,7.05
2023-02-28T21:21:45.051Z,6.60
2023-02-28T21:24:14.071Z,6.45
2023-02-28T21:26:46.334Z,6.95
2023-02-28T21:29:15.352Z,6.35
2023-02-28T21:31:44.993Z,6.10
2023-02-28T21:34:13.702Z,5.75
2023-02-28T21:36:45.152Z,6.00
2023-02-28T21:39:15.865Z,5.88
2023-02-28T21:41:43.920Z,6.18
2023-02-28T21:44:18.695Z,6.60
2023-02-28T21:46:49.924Z,6.88
2023-02-28T21:49:18.251Z,6.05
2023-02-28T21:51:46.246Z,6.30
2023-02-28T21:54:14.953Z,6.47
2023-02-28T21:56:43.073Z,7.50
2023-02-28T21:59:11.644Z,7.55
2023-02-28T22:01:43.876Z,6.88
2023-02-28T22:04:20.966Z,7.93
2023-02-28T22:06:50.721Z,8.05
2023-02-28T22:09:19.391Z,7.32
2023-02-28T22:11:47.914Z,7.63
2023-02-28T22:14:15.896Z,8.18
2023-02-28T22:16:54.398Z,8.23
2023-02-28T22:19:24.912Z,8.18
2023-02-28T22:21:54.650Z,8.00
2023-02-28T22:24:24.420Z,7.85
2023-02-28T22:26:53.184Z,7.95
2023-02-28T22:29:21.186Z,7.55
2023-02-28T22:31:49.309Z,7.47
2023-02-28T22:34:17.490Z,7.82
2023-02-28T22:36:46.827Z,7.85
2023-02-28T22:39:14.789Z,7.50
2023-02-28T22:41:42.840Z,7.68
2023-02-28T22:44:12.305Z,7.63
2023-02-28T22:46:40.397Z,7.25
2023-02-28T22:49:08.663Z,8.07
2023-02-28T22:51:36.718Z,8.40
2023-02-28T22:54:06.377Z,7.70
2023-02-28T22:56:34.691Z,7.93
2023-02-28T22:59:03.167Z,7.75
2023-02-28T23:01:33.653Z,8.32
2023-02-28T23:04:02.778Z,7.63
2023-02-28T23:06:33.427Z,8.10
2023-02-28T23:09:04.317Z,8.13
2023-02-28T23:11:37.199Z,8.15
2023-02-28T23:14:07.430Z,7.82
2023-02-28T23:16:38.234Z,7.45
2023-02-28T23:19:11.083Z,7.55
2023-02-28T23:21:40.425Z,7.72
2023-02-28T23:24:11.369Z,8.38
2023-02-28T23:26:44.084Z,8.10
2023-02-28T23:29:13.235Z,7.95
2023-02-28T23:31:41.615Z,7.88
2023-02-28T23:34:09.877Z,7.88
2023-02-28T23:36:39.061Z,7.55
2023-02-28T23:39:07.246Z,8.93
2023-02-28T23:41:35.275Z,7.90
2023-02-28T23:44:04.677Z,8.00
2023-02-28T23:46:33.052Z,8.25
2023-02-28T23:49:01.161Z,7.82
2023-02-28T23:51:29.157Z,7.93
2023-02-28T23:53:57.212Z,7.88
2023-02-28T23:56:26.204Z,8.00
2023-02-28T23:58:56.155Z,8.50
